sensor_id;sensor_type;location;lat;lon;timestamp;P1;durP1;ratioP1;P2;durP2;ratioP2
29414;SDS011;20303;48.302;11.914;2022-09-12T00:06:10;5.85;;;4.57;;
29414;SDS011;20303;48.302;11.914;2022-09-12T00:16:33;6.47;;;4.47;;
29414;SDS011;20303;48.302;11.914;2022-09-12T00:26:35;8.85;;;4.55;;
29414;SDS011;20303;48.302;11.914;2022-09-12T00:36:37;6.63;;;4.10;;
29414;SDS011;20303;48.302;11.914;2022-09-12T00:57:00;5.07;;;3.75;;
29414;SDS011;20303;48.302;11.914;2022-09-12T01:07:18;6.07;;;3.90;;
29414;SDS011;20303;48.302;11.914;2022-09-12T01:17:19;4.43;;;3.70;;
29414;SDS011;20303;48.302;11.914;2022-09-12T01:27:35;4.13;;;3.42;;
29414;SDS011;20303;48.302;11.914;2022-09-12T01:37:46;3.88;;;3.20;;
29414;SDS011;20303;48.302;11.914;2022-09-12T01:48:08;4.27;;;3.10;;
29414;SDS011;20303;48.302;11.914;2022-09-12T01:58:21;3.80;;;3.00;;
29414;SDS011;20303;48.302;11.914;2022-09-12T02:08:30;3.78;;;2.92;;
29414;SDS011;20303;48.302;11.914;2022-09-12T02:18:38;3.72;;;2.78;;
29414;SDS011;20303;48.302;11.914;2022-09-12T02:28:43;6.78;;;2.95;;
29414;SDS011;20303;48.302;11.914;2022-09-12T02:38:45;7.93;;;2.70;;
29414;SDS011;20303;48.302;11.914;2022-09-12T02:48:46;4.75;;;2.45;;
29414;SDS011;20303;48.302;11.914;2022-09-12T02:58:47;4.70;;;2.40;;
29414;SDS011;20303;48.302;11.914;2022-09-12T03:08:50;3.20;;;2.10;;
29414;SDS011;20303;48.302;11.914;2022-09-12T03:29:40;3.22;;;2.42;;
29414;SDS011;20303;48.302;11.914;2022-09-12T03:39:43;2.55;;;2.20;;
29414;SDS011;20303;48.302;11.914;2022-09-12T03:49:44;3.17;;;2.20;;
29414;SDS011;20303;48.302;11.914;2022-09-12T03:59:47;2.03;;;1.83;;
29414;SDS011;20303;48.302;11.914;2022-09-12T04:09:49;5.05;;;1.80;;
29414;SDS011;20303;48.302;11.914;2022-09-12T04:19:50;2.00;;;1.80;;
29414;SDS011;20303;48.302;11.914;2022-09-12T04:29:51;3.63;;;1.80;;
29414;SDS011;20303;48.302;11.914;2022-09-12T04:39:53;2.40;;;1.70;;
29414;SDS011;20303;48.302;11.914;2022-09-12T04:49:56;1.95;;;1.75;;
29414;SDS011;20303;48.302;11.914;2022-09-12T04:59:57;3.25;;;1.73;;
29414;SDS011;20303;48.302;11.914;2022-09-12T05:09:58;3.58;;;1.75;;
29414;SDS011;20303;48.302;11.914;2022-09-12T05:19:59;3.15;;;1.80;;
29414;SDS011;20303;48.302;11.914;2022-09-12T05:30:01;3.60;;;1.73;;
29414;SDS011;20303;48.302;11.914;2022-09-12T05:40:03;13.77;;;2.00;;
29414;SDS011;20303;48.302;11.914;2022-09-12T05:50:06;7.82;;;1.80;;
29414;SDS011;20303;48.302;11.914;2022-09-12T06:00:10;9.25;;;1.92;;
29414;SDS011;20303;48.302;11.914;2022-09-12T06:10:12;5.45;;;1.70;;
29414;SDS011;20303;48.302;11.914;2022-09-12T06:20:15;6.50;;;1.70;;
29414;SDS011;20303;48.302;11.914;2022-09-12T06:30:18;8.25;;;1.63;;
29414;SDS011;20303;48.302;11.914;2022-09-12T06:40:19;4.88;;;1.60;;
29414;SDS011;20303;48.302;11.914;2022-09-12T06:50:20;4.28;;;1.58;;
29414;SDS011;20303;48.302;11.914;2022-09-12T07:00:21;3.15;;;1.50;;
29414;SDS011;20303;48.302;11.914;2022-09-12T07:10:22;10.00;;;2.03;;
29414;SDS011;20303;48.302;11.914;2022-09-12T07:20:23;5.45;;;1.80;;
29414;SDS011;20303;48.302;11.914;2022-09-12T07:30:24;3.72;;;1.75;;
29414;SDS011;20303;48.302;11.914;2022-09-12T07:40:26;4.53;;;1.80;;
29414;SDS011;20303;48.302;11.914;2022-09-12T07:50:28;4.20;;;1.63;;
29414;SDS011;20303;48.302;11.914;2022-09-12T08:00:29;3.20;;;1.52;;
29414;SDS011;20303;48.302;11.914;2022-09-12T08:10:35;2.92;;;1.50;;
29414;SDS011;20303;48.302;11.914;2022-09-12T08:20:36;2.92;;;1.60;;
29414;SDS011;20303;48.302;11.914;2022-09-12T08:30:37;4.18;;;2.13;;
29414;SDS011;20303;48.302;11.914;2022-09-12T08:40:43;2.88;;;2.30;;
29414;SDS011;20303;48.302;11.914;2022-09-12T08:50:50;5.45;;;2.55;;
29414;SDS011;20303;48.302;11.914;2022-09-12T09:11:22;2.60;;;2.40;;
29414;SDS011;20303;48.302;11.914;2022-09-12T09:31:37;3.95;;;3.00;;
29414;SDS011;20303;48.302;11.914;2022-09-12T09:41:49;3.50;;;3.20;;
29414;SDS011;20303;48.302;11.914;2022-09-12T09:52:25;3.92;;;3.53;;
29414;SDS011;20303;48.302;11.914;2022-09-12T10:02:29;3.78;;;3.00;;
29414;SDS011;20303;48.302;11.914;2022-09-12T10:12:30;3.30;;;2.55;;
29414;SDS011;20303;48.302;11.914;2022-09-12T10:22:31;2.67;;;2.47;;
29414;SDS011;20303;48.302;11.914;2022-09-12T10:32:36;4.00;;;2.60;;
29414;SDS011;20303;48.302;11.914;2022-09-12T10:42:40;2.70;;;2.40;;
29414;SDS011;20303;48.302;11.914;2022-09-12T10:52:49;3.45;;;2.33;;
29414;SDS011;20303;48.302;11.914;2022-09-12T11:24:07;2.40;;;2.20;;
29414;SDS011;20303;48.302;11.914;2022-09-12T11:34:10;2.13;;;1.92;;
29414;SDS011;20303;48.302;11.914;2022-09-12T11:44:26;4.22;;;2.70;;
29414;SDS011;20303;48.302;11.914;2022-09-12T12:04:36;2.22;;;2.03;;
29414;SDS011;20303;48.302;11.914;2022-09-12T12:14:47;3.83;;;2.10;;
29414;SDS011;20303;48.302;11.914;2022-09-12T12:24:56;2.85;;;2.50;;
29414;SDS011;20303;48.302;11.914;2022-09-12T12:35:01;5.40;;;2.50;;
29414;SDS011;20303;48.302;11.914;2022-09-12T12:55:56;2.33;;;2.10;;
29414;SDS011;20303;48.302;11.914;2022-09-12T13:06:01;2.40;;;2.20;;
29414;SDS011;20303;48.302;11.914;2022-09-12T13:16:08;4.88;;;2.20;;
29414;SDS011;20303;48.302;11.914;2022-09-12T13:26:11;3.30;;;2.40;;
29414;SDS011;20303;48.302;11.914;2022-09-12T13:36:29;4.47;;;2.40;;
29414;SDS011;20303;48.302;11.914;2022-09-12T13:46:59;3.65;;;2.30;;
29414;SDS011;20303;48.302;11.914;2022-09-12T13:57:01;3.38;;;2.30;;
29414;SDS011;20303;48.302;11.914;2022-09-12T14:07:13;4.72;;;2.28;;
29414;SDS011;20303;48.302;11.914;2022-09-12T14:17:22;2.75;;;2.42;;
29414;SDS011;20303;48.302;11.914;2022-09-12T14:27:30;3.60;;;2.20;;
29414;SDS011;20303;48.302;11.914;2022-09-12T14:48:31;3.83;;;2.33;;
29414;SDS011;20303;48.302;11.914;2022-09-12T14:58:35;2.55;;;2.20;;
29414;SDS011;20303;48.302;11.914;2022-09-12T15:08:37;2.47;;;2.28;;
29414;SDS011;20303;48.302;11.914;2022-09-12T15:18:38;2.40;;;2.20;;
29414;SDS011;20303;48.302;11.914;2022-09-12T15:28:39;3.60;;;2.20;;
29414;SDS011;20303;48.302;11.914;2022-09-12T15:38:40;2.50;;;2.30;;
29414;SDS011;20303;48.302;11.914;2022-09-12T15:48:42;2.75;;;2.30;;
29414;SDS011;20303;48.302;11.914;2022-09-12T16:08:50;3.30;;;2.70;;
29414;SDS011;20303;48.302;11.914;2022-09-12T16:18:51;2.58;;;2.38;;
29414;SDS011;20303;48.302;11.914;2022-09-12T16:28:55;4.80;;;2.38;;
29414;SDS011;20303;48.302;11.914;2022-09-12T16:38:57;4.00;;;2.42;;
29414;SDS011;20303;48.302;11.914;2022-09-12T16:48:59;3.15;;;2.40;;
29414;SDS011;20303;48.302;11.914;2022-09-12T16:59:00;2.88;;;2.60;;
29414;SDS011;20303;48.302;11.914;2022-09-12T17:09:03;3.95;;;3.00;;
29414;SDS011;20303;48.302;11.914;2022-09-12T17:19:07;5.50;;;3.10;;
29414;SDS011;20303;48.302;11.914;2022-09-12T17:29:11;3.67;;;3.08;;
29414;SDS011;20303;48.302;11.914;2022-09-12T17:39:13;4.15;;;3.42;;
29414;SDS011;20303;48.302;11.914;2022-09-12T17:49:16;3.35;;;2.95;;
29414;SDS011;20303;48.302;11.914;2022-09-12T17:59:20;4.82;;;2.70;;
29414;SDS011;20303;48.302;11.914;2022-09-12T18:09:23;4.72;;;2.60;;
29414;SDS011;20303;48.302;11.914;2022-09-12T18:19:25;4.35;;;2.67;;
29414;SDS011;20303;48.302;11.914;2022-09-12T18:29:27;20.27;;;3.08;;
29414;SDS011;20303;48.302;11.914;2022-09-12T18:39:28;8.05;;;2.72;;
29414;SDS011;20303;48.302;11.914;2022-09-12T18:49:29;7.90;;;2.83;;
29414;SDS011;20303;48.302;11.914;2022-09-12T18:59:38;10.73;;;3.60;;
29414;SDS011;20303;48.302;11.914;2022-09-12T19:09:39;14.77;;;5.03;;
29414;SDS011;20303;48.302;11.914;2022-09-12T19:19:41;18.35;;;10.10;;
29414;SDS011;20303;48.302;11.914;2022-09-12T19:29:43;18.75;;;8.60;;
29414;SDS011;20303;48.302;11.914;2022-09-12T19:39:44;12.70;;;7.38;;
29414;SDS011;20303;48.302;11.914;2022-09-12T19:49:46;10.43;;;5.57;;
29414;SDS011;20303;48.302;11.914;2022-09-12T19:59:47;11.55;;;4.70;;
29414;SDS011;20303;48.302;11.914;2022-09-12T20:09:48;7.68;;;3.85;;
29414;SDS011;20303;48.302;11.914;2022-09-12T20:19:49;7.65;;;3.80;;
29414;SDS011;20303;48.302;11.914;2022-09-12T20:29:51;7.28;;;3.85;;
29414;SDS011;20303;48.302;11.914;2022-09-12T20:39:53;6.40;;;3.75;;
29414;SDS011;20303;48.302;11.914;2022-09-12T20:49:54;7.93;;;3.58;;
29414;SDS011;20303;48.302;11.914;2022-09-12T20:59:55;7.00;;;3.40;;
29414;SDS011;20303;48.302;11.914;2022-09-12T21:09:57;7.22;;;3.50;;
29414;SDS011;20303;48.302;11.914;2022-09-12T21:20:02;8.15;;;3.42;;
29414;SDS011;20303;48.302;11.914;2022-09-12T21:30:05;8.05;;;3.20;;
29414;SDS011;20303;48.302;11.914;2022-09-12T21:40:06;4.47;;;2.97;;
29414;SDS011;20303;48.302;11.914;2022-09-12T21:50:09;14.05;;;6.05;;
29414;SDS011;20303;48.302;11.914;2022-09-12T22:00:11;11.05;;;5.72;;
29414;SDS011;20303;48.302;11.914;2022-09-12T22:10:15;19.23;;;5.18;;
29414;SDS011;20303;48.302;11.914;2022-09-12T22:20:16;9.85;;;4.50;;
29414;SDS011;20303;48.302;11.914;2022-09-12T22:30:18;10.30;;;4.05;;
29414;SDS011;20303;48.302;11.914;2022-09-12T22:40:20;7.55;;;3.80;;
29414;SDS011;20303;48.302;11.914;2022-09-12T22:50:24;7.82;;;3.33;;
29414;SDS011;20303;48.302;11.914;2022-09-12T23:00:25;6.18;;;3.10;;
29414;SDS011;20303;48.302;11.914;2022-09-12T23:10:26;4.18;;;3.05;;
29414;SDS011;20303;48.302;11.914;2022-09-12T23:20:27;5.22;;;2.97;;
29414;SDS011;20303;48.302;11.914;2022-09-12T23:30:28;4.97;;;2.63;;
29414;SDS011;20303;48.302;11.914;2022-09-12T23:40:30;11.52;;;3.10;;
29414;SDS011;20303;48.302;11.914;2022-09-12T23:50:31;3.75;;;2.78;;
